createdAt,value
2022-08-10T00:00:55.719Z,1.40
2022-08-10T00:03:24.987Z,1.52
2022-08-10T00:05:54.876Z,1.20
2022-08-10T00:08:25.018Z,1.70
2022-08-10T00:10:53.472Z,1.23
2022-08-10T00:13:21.913Z,1.75
2022-08-10T00:15:54.190Z,1.70
2022-08-10T00:18:34.847Z,1.70
2022-08-10T00:21:05.936Z,1.75
2022-08-10T00:23:34.136Z,1.70
2022-08-10T00:26:02.490Z,1.60
2022-08-10T00:28:30.523Z,1.83
2022-08-10T00:30:58.546Z,1.80
2022-08-10T00:33:27.896Z,2.13
2022-08-10T00:35:55.721Z,1.83
2022-08-10T00:38:24.243Z,1.85
2022-08-10T00:40:52.361Z,1.65
2022-08-10T00:43:23.894Z,1.60
2022-08-10T00:45:59.062Z,1.52
2022-08-10T00:48:31.176Z,1.50
2022-08-10T00:50:59.518Z,1.50
2022-08-10T00:53:27.999Z,1.85
2022-08-10T00:57:14.353Z,2.00
2022-08-10T00:58:44.886Z,1.40
2022-08-10T01:02:09.903Z,1.80
2022-08-10T01:04:36.656Z,1.60
2022-08-10T01:07:08.021Z,1.92
2022-08-10T01:09:44.368Z,1.77
2022-08-10T01:12:38.353Z,1.95
2022-08-10T01:15:15.321Z,1.98
2022-08-10T01:20:30.558Z,1.90
2022-08-10T01:23:31.513Z,1.73
2022-08-10T01:26:30.712Z,1.65
2022-08-10T01:29:13.885Z,1.63
2022-08-10T01:31:46.699Z,1.83
2022-08-10T01:34:21.506Z,2.33
2022-08-10T01:36:52.752Z,1.95
2022-08-10T01:39:24.673Z,2.05
2022-08-10T01:41:57.857Z,2.45
2022-08-10T01:44:30.914Z,2.47
2022-08-10T01:47:22.064Z,1.83
2022-08-10T01:49:54.852Z,2.13
2022-08-10T01:52:24.993Z,1.92
2022-08-10T01:54:56.033Z,1.92
2022-08-10T01:57:26.635Z,2.00
2022-08-10T02:00:02.098Z,2.40
2022-08-10T02:02:37.460Z,2.15
2022-08-10T02:05:08.354Z,1.95
2022-08-10T02:07:39.544Z,1.92
2022-08-10T02:10:12.741Z,1.85
2022-08-10T02:12:43.637Z,1.90
2022-08-10T02:15:16.263Z,1.92
2022-08-10T02:17:59.430Z,2.78
2022-08-10T02:20:33.994Z,2.15
2022-08-10T02:23:06.128Z,2.05
2022-08-10T02:25:40.902Z,2.58
2022-08-10T02:28:30.336Z,2.10
2022-08-10T02:31:03.766Z,2.08
2022-08-10T02:33:38.532Z,2.05
2022-08-10T02:36:27.391Z,2.40
2022-08-10T02:39:00.722Z,2.72
2022-08-10T02:45:12.566Z,2.53
2022-08-10T02:45:20.481Z,2.10
2022-08-10T02:47:26.380Z,2.58
2022-08-10T02:50:02.887Z,2.33
2022-08-10T02:52:38.795Z,2.55
2022-08-10T02:55:18.049Z,2.55
2022-08-10T02:58:15.228Z,2.53
2022-08-10T03:00:48.195Z,2.75
2022-08-10T03:03:20.863Z,2.28
2022-08-10T03:05:55.469Z,2.55
2022-08-10T03:08:27.053Z,2.10
2022-08-10T03:10:57.710Z,2.55
2022-08-10T03:13:26.549Z,2.38
2022-08-10T03:15:56.515Z,2.17
2022-08-10T03:18:26.047Z,2.78
2022-08-10T03:20:57.179Z,2.63
2022-08-10T03:23:26.980Z,2.10
2022-08-10T03:26:00.103Z,2.25
2022-08-10T03:28:29.934Z,2.78
2022-08-10T03:30:59.833Z,2.83
2022-08-10T03:33:32.015Z,2.25
2022-08-10T03:36:40.049Z,2.50
2022-08-10T03:38:51.658Z,3.08
2022-08-10T03:41:23.832Z,2.17
2022-08-10T03:43:54.418Z,2.80
2022-08-10T03:46:24.708Z,2.42
2022-08-10T03:48:56.775Z,2.55
2022-08-10T03:51:27.515Z,3.10
2022-08-10T03:54:05.093Z,2.90
2022-08-10T03:56:36.989Z,2.60
2022-08-10T03:59:05.749Z,2.78
2022-08-10T04:02:46.060Z,2.60
2022-08-10T04:04:24.610Z,2.60
2022-08-10T04:06:55.807Z,2.70
2022-08-10T04:09:24.752Z,2.70
2022-08-10T04:11:57.864Z,3.88
2022-08-10T04:14:38.831Z,2.63
2022-08-10T04:17:14.238Z,2.80
2022-08-10T04:19:45.834Z,3.15
2022-08-10T04:22:18.820Z,3.03
2022-08-10T04:24:49.109Z,2.63
2022-08-10T04:27:17.730Z,3.60
2022-08-10T04:29:46.190Z,3.03
2022-08-10T04:32:18.232Z,3.33
2022-08-10T04:34:47.954Z,4.10
2022-08-10T04:37:20.558Z,3.58
2022-08-10T04:39:49.119Z,3.30
2022-08-10T04:42:17.756Z,3.40
2022-08-10T04:44:45.924Z,3.92
2022-08-10T04:47:13.809Z,3.55
2022-08-10T04:49:56.189Z,3.50
2022-08-10T04:52:26.265Z,3.55
2022-08-10T04:54:54.109Z,3.22
2022-08-10T04:57:21.928Z,3.88
2022-08-10T04:59:50.112Z,3.63
2022-08-10T05:02:31.130Z,3.15
2022-08-10T05:05:00.079Z,4.28
2022-08-10T05:07:29.391Z,3.97
2022-08-10T05:10:01.422Z,2.60
2022-08-10T05:12:35.818Z,2.92
2022-08-10T05:15:07.036Z,3.00
2022-08-10T05:17:35.564Z,2.83
2022-08-10T05:20:07.092Z,2.60
2022-08-10T05:22:38.453Z,2.60
2022-08-10T05:25:08.322Z,3.08
2022-08-10T05:27:36.738Z,2.90
2022-08-10T05:30:07.023Z,3.25
2022-08-10T05:32:55.298Z,2.88
2022-08-10T05:35:24.212Z,2.92
2022-08-10T05:38:09.314Z,3.20
2022-08-10T05:40:47.074Z,2.92
2022-08-10T05:43:18.920Z,3.80
2022-08-10T05:46:16.706Z,2.70
2022-08-10T05:48:58.083Z,3.13
2022-08-10T05:51:24.526Z,2.92
2022-08-10T05:54:01.558Z,3.05
2022-08-10T05:56:56.983Z,2.75
2022-08-10T06:00:33.233Z,2.88
2022-08-10T06:02:33.813Z,2.80
2022-08-10T06:05:01.287Z,2.97
2022-08-10T06:07:31.176Z,3.17
2022-08-10T06:10:02.044Z,2.90
2022-08-10T06:12:38.911Z,2.53
2022-08-10T06:15:21.845Z,2.75
2022-08-10T06:18:06.902Z,2.97
2022-08-10T06:20:36.243Z,2.97
2022-08-10T06:23:05.515Z,2.45
2022-08-10T06:28:24.791Z,2.65
2022-08-10T06:30:55.717Z,2.72
2022-08-10T06:33:25.258Z,3.00
2022-08-10T06:35:56.395Z,2.83
2022-08-10T06:38:25.917Z,2.63
2022-08-10T06:40:59.562Z,3.13
2022-08-10T06:43:29.875Z,2.70
2022-08-10T06:46:07.289Z,2.75
2022-08-10T06:48:40.346Z,2.78
2022-08-10T06:51:14.411Z,3.20
2022-08-10T06:56:36.788Z,2.95
2022-08-10T06:59:13.301Z,3.25
2022-08-10T07:01:53.137Z,2.92
2022-08-10T07:04:32.983Z,2.75
2022-08-10T07:07:04.642Z,3.05
2022-08-10T07:09:36.082Z,2.33
2022-08-10T07:12:09.185Z,2.30
2022-08-10T07:14:51.815Z,2.53
2022-08-10T07:17:21.792Z,2.10
2022-08-10T07:19:53.039Z,2.47
2022-08-10T07:23:50.775Z,2.05
2022-08-10T07:25:16.034Z,2.53
2022-08-10T07:28:00.061Z,2.17
2022-08-10T07:30:33.769Z,2.22
2022-08-10T07:33:03.366Z,2.78
2022-08-10T07:35:41.863Z,2.65
2022-08-10T07:38:19.749Z,2.60
2022-08-10T07:40:49.806Z,2.42
2022-08-10T07:43:21.834Z,1.88
2022-08-10T07:45:51.140Z,2.95
2022-08-10T07:48:23.883Z,2.38
2022-08-10T07:50:55.448Z,2.35
2022-08-10T07:53:27.503Z,1.98
2022-08-10T07:56:05.101Z,2.10
2022-08-10T07:58:49.981Z,2.28
2022-08-10T08:01:25.195Z,1.83
2022-08-10T08:04:10.905Z,2.22
2022-08-10T08:06:41.986Z,2.40
2022-08-10T08:09:11.757Z,2.53
2022-08-10T08:11:42.342Z,2.45
2022-08-10T08:14:12.816Z,2.10
2022-08-10T08:16:45.698Z,1.88
2022-08-10T08:19:35.834Z,2.03
2022-08-10T08:24:04.651Z,2.15
2022-08-10T08:24:53.943Z,2.30
2022-08-10T08:27:22.586Z,1.60
2022-08-10T08:30:27.971Z,1.65
2022-08-10T08:32:57.475Z,1.80
2022-08-10T08:35:27.491Z,2.10
2022-08-10T08:38:32.851Z,2.00
2022-08-10T08:40:53.795Z,1.55
2022-08-10T08:43:34.789Z,1.85
2022-08-10T08:46:28.337Z,1.63
2022-08-10T08:50:04.395Z,1.77
2022-08-10T08:52:38.182Z,1.13
2022-08-10T08:56:04.901Z,1.42
2022-08-10T08:58:27.718Z,1.17
2022-08-10T09:01:06.778Z,1.20
2022-08-10T09:03:57.888Z,1.30
2022-08-10T09:06:45.196Z,1.55
2022-08-10T09:09:38.556Z,1.48
2022-08-10T09:12:42.834Z,1.27
2022-08-10T09:15:40.761Z,1.40
2022-08-10T09:18:14.985Z,1.27
2022-08-10T09:20:52.670Z,1.58
2022-08-10T09:24:05.207Z,1.13
2022-08-10T09:26:21.485Z,1.10
2022-08-10T09:29:12.354Z,1.10
2022-08-10T09:31:55.884Z,1.05
2022-08-10T09:36:23.867Z,1.33
2022-08-10T09:38:02.105Z,1.27
2022-08-10T09:40:59.862Z,1.35
2022-08-10T09:43:46.354Z,1.52
2022-08-10T09:46:23.619Z,1.10
2022-08-10T09:49:04.810Z,1.50
2022-08-10T09:51:48.187Z,1.23
2022-08-10T09:54:26.643Z,1.02
2022-08-10T09:57:41.200Z,0.80
2022-08-10T10:00:03.200Z,1.20
2022-08-10T10:02:43.255Z,1.27
2022-08-10T10:05:28.553Z,0.95
2022-08-10T10:08:07.134Z,1.00
2022-08-10T10:10:47.684Z,1.10
2022-08-10T10:13:58.336Z,1.48
2022-08-10T10:16:47.013Z,1.10
2022-08-10T10:19:31.215Z,1.95
2022-08-10T10:22:14.009Z,1.27
2022-08-10T10:24:46.861Z,1.20
2022-08-10T10:27:28.239Z,1.00
2022-08-10T10:30:04.638Z,0.98
2022-08-10T10:32:46.048Z,1.30
2022-08-10T10:35:24.470Z,1.00
2022-08-10T10:38:02.942Z,0.70
2022-08-10T10:40:40.739Z,1.15
2022-08-10T10:43:27.044Z,1.08
2022-08-10T10:46:04.509Z,1.55
2022-08-10T10:48:41.256Z,0.90
2022-08-10T10:51:15.890Z,1.10
2022-08-10T10:53:48.899Z,0.85
2022-08-10T10:56:21.606Z,1.30
2022-08-10T10:59:54.383Z,1.47
2022-08-10T11:01:59.114Z,0.98
2022-08-10T11:04:36.525Z,0.98
2022-08-10T11:07:15.721Z,1.10
2022-08-10T11:10:05.637Z,1.00
2022-08-10T11:15:24.984Z,0.75
2022-08-10T11:17:58.930Z,1.10
2022-08-10T11:20:38.137Z,0.77
2022-08-10T11:23:19.863Z,0.90
2022-08-10T11:25:56.319Z,0.85
2022-08-10T11:28:36.788Z,1.00
2022-08-10T11:31:14.790Z,0.80
2022-08-10T11:34:48.949Z,0.90
2022-08-10T11:36:48.025Z,1.00
2022-08-10T11:39:20.725Z,1.20
2022-08-10T11:42:09.792Z,1.30
2022-08-10T11:44:48.561Z,1.07
2022-08-10T11:47:20.783Z,1.55
2022-08-10T11:49:54.644Z,1.20
2022-08-10T11:52:35.489Z,1.00
2022-08-10T11:55:11.030Z,1.73
2022-08-10T11:57:54.757Z,1.20
2022-08-10T12:00:24.273Z,1.20
2022-08-10T12:02:58.674Z,1.00
2022-08-10T12:05:51.726Z,1.15
2022-08-10T12:10:05.959Z,1.05
2022-08-10T12:11:07.380Z,0.90
2022-08-10T12:13:46.598Z,1.00
2022-08-10T12:16:30.340Z,0.80
2022-08-10T12:19:05.120Z,1.00
2022-08-10T12:21:37.997Z,1.13
2022-08-10T12:24:12.673Z,1.30
2022-08-10T12:26:50.908Z,0.80
2022-08-10T12:29:27.499Z,1.13
2022-08-10T12:32:00.340Z,0.80
2022-08-10T12:34:33.467Z,0.90
2022-08-10T12:37:08.592Z,1.60
2022-08-10T12:39:51.479Z,1.10
2022-08-10T12:42:36.815Z,0.75
2022-08-10T12:45:17.154Z,0.88
2022-08-10T12:47:53.858Z,1.10
2022-08-10T12:50:33.735Z,0.90
2022-08-10T12:53:07.388Z,1.13
2022-08-10T12:55:39.151Z,1.05
2022-08-10T12:58:58.192Z,0.95
2022-08-10T13:01:15.604Z,1.30
2022-08-10T13:04:22.554Z,1.00
2022-08-10T13:06:42.469Z,1.40
2022-08-10T13:09:11.090Z,1.52
2022-08-10T13:12:37.472Z,1.00
2022-08-10T13:14:36.727Z,1.17
2022-08-10T13:17:08.106Z,0.90
2022-08-10T13:19:55.354Z,1.30
2022-08-10T13:22:31.474Z,1.02
2022-08-10T13:25:02.481Z,0.90
2022-08-10T13:28:02.558Z,0.93
2022-08-10T13:30:37.267Z,0.90
2022-08-10T13:33:08.291Z,1.00
2022-08-10T13:35:38.459Z,0.90
2022-08-10T13:38:11.203Z,1.20
2022-08-10T13:40:40.474Z,1.20
2022-08-10T13:43:10.730Z,1.20
2022-08-10T13:45:49.363Z,1.00
2022-08-10T13:48:21.279Z,1.10
2022-08-10T13:50:51.715Z,0.90
2022-08-10T13:53:23.348Z,1.10
2022-08-10T13:55:56.434Z,1.10
2022-08-10T13:58:29.946Z,0.98
2022-08-10T14:01:00.214Z,0.75
2022-08-10T14:03:29.605Z,1.00
2022-08-10T14:05:59.620Z,0.70
2022-08-10T14:08:32.970Z,0.85
2022-08-10T14:11:11.524Z,1.25
2022-08-10T14:13:45.362Z,1.00
2022-08-10T14:16:14.379Z,1.17
2022-08-10T14:18:45.749Z,0.80
2022-08-10T14:21:14.660Z,1.25
2022-08-10T14:23:52.137Z,1.23
2022-08-10T14:26:24.395Z,1.10
2022-08-10T14:28:56.364Z,1.00
2022-08-10T14:31:30.306Z,1.10
2022-08-10T14:34:00.963Z,0.93
2022-08-10T14:36:42.254Z,1.00
2022-08-10T14:39:15.845Z,1.17
2022-08-10T14:42:04.169Z,0.95
2022-08-10T14:44:34.424Z,1.35
2022-08-10T14:47:54.132Z,1.38
2022-08-10T14:49:57.899Z,1.10
2022-08-10T14:52:28.711Z,1.10
2022-08-10T14:55:04.749Z,1.17
2022-08-10T14:58:20.427Z,1.40
2022-08-10T15:00:33.102Z,1.20
2022-08-10T15:03:16.076Z,1.30
2022-08-10T15:05:59.143Z,1.48
2022-08-10T15:08:29.443Z,1.30
2022-08-10T15:11:07.490Z,2.50
2022-08-10T15:13:37.162Z,1.20
2022-08-10T15:16:12.951Z,1.00
2022-08-10T15:18:58.684Z,1.52
2022-08-10T15:21:40.734Z,1.20
2022-08-10T15:24:15.836Z,1.20
2022-08-10T15:26:57.474Z,0.98
2022-08-10T15:29:27.495Z,1.40
2022-08-10T15:32:13.452Z,1.40
2022-08-10T15:35:02.421Z,1.00
2022-08-10T15:37:40.506Z,0.90
2022-08-10T15:40:26.911Z,1.17
2022-08-10T15:43:20.428Z,1.38
2022-08-10T15:45:59.170Z,1.15
2022-08-10T15:48:40.435Z,0.68
2022-08-10T15:51:17.922Z,1.00
2022-08-10T15:53:51.629Z,1.20
2022-08-10T15:56:28.671Z,1.20
2022-08-10T15:59:08.244Z,1.20
2022-08-10T16:02:14.717Z,1.20
2022-08-10T16:04:36.506Z,1.45
2022-08-10T16:07:07.869Z,2.47
2022-08-10T16:10:24.210Z,2.25
2022-08-10T16:12:34.213Z,2.70
2022-08-10T16:15:08.081Z,1.35
2022-08-10T16:17:55.298Z,1.05
2022-08-10T16:20:31.254Z,1.15
2022-08-10T16:23:05.457Z,2.30
2022-08-10T16:25:48.587Z,2.10
2022-08-10T16:28:24.219Z,1.10
2022-08-10T16:30:58.382Z,2.50
2022-08-10T16:33:54.500Z,1.50
2022-08-10T16:36:18.757Z,1.38
2022-08-10T16:38:50.232Z,1.17
2022-08-10T16:42:04.955Z,2.20
2022-08-10T16:44:14.762Z,1.10
2022-08-10T16:46:45.964Z,1.40
2022-08-10T16:49:15.948Z,1.30
2022-08-10T16:51:48.245Z,1.88
2022-08-10T16:54:19.039Z,1.40
2022-08-10T16:56:50.765Z,1.00
2022-08-10T16:59:24.418Z,1.38
2022-08-10T17:01:54.877Z,1.40
2022-08-10T17:04:24.279Z,1.42
2022-08-10T17:06:56.975Z,1.17
2022-08-10T17:09:28.473Z,1.30
2022-08-10T17:11:59.236Z,1.70
2022-08-10T17:14:29.336Z,2.20
2022-08-10T17:17:05.480Z,1.10
2022-08-10T17:19:39.960Z,1.38
2022-08-10T17:22:14.081Z,1.33
2022-08-10T17:24:46.378Z,1.20
2022-08-10T17:28:04.049Z,1.30
2022-08-10T17:30:13.977Z,0.98
2022-08-10T17:32:52.535Z,1.02
2022-08-10T17:35:23.882Z,1.20
2022-08-10T17:37:57.613Z,1.05
2022-08-10T17:40:28.425Z,1.10
2022-08-10T17:42:59.057Z,1.15
2022-08-10T17:45:48.528Z,1.20
2022-08-10T17:48:21.947Z,2.08
2022-08-10T17:50:52.335Z,1.42
2022-08-10T17:53:25.551Z,1.38
2022-08-10T17:55:56.714Z,1.05
2022-08-10T17:58:27.051Z,1.23
2022-08-10T18:01:40.275Z,1.48
2022-08-10T18:03:52.732Z,1.23
2022-08-10T18:06:22.830Z,1.10
2022-08-10T18:08:55.856Z,1.20
2022-08-10T18:11:26.700Z,1.25
2022-08-10T18:14:00.272Z,1.48
2022-08-10T18:19:04.119Z,1.35
2022-08-10T18:21:34.058Z,1.25
2022-08-10T18:24:07.621Z,1.40
2022-08-10T18:26:37.211Z,1.30
2022-08-10T18:29:10.777Z,1.30
2022-08-10T18:31:42.447Z,1.60
2022-08-10T18:34:13.201Z,1.80
2022-08-10T18:36:47.109Z,3.20
2022-08-10T18:39:17.152Z,2.17
2022-08-10T18:42:05.169Z,1.83
2022-08-10T18:44:37.287Z,1.80
2022-08-10T18:47:10.232Z,1.77
2022-08-10T18:49:55.152Z,2.20
2022-08-10T18:52:29.235Z,1.60
2022-08-10T18:55:14.550Z,1.50
2022-08-10T18:58:40.913Z,1.88
2022-08-10T19:01:27.044Z,2.00
2022-08-10T19:04:16.373Z,2.03
2022-08-10T19:07:15.429Z,1.90
2022-08-10T19:10:04.410Z,2.15
2022-08-10T19:12:42.566Z,1.98
2022-08-10T19:15:19.163Z,1.60
2022-08-10T19:18:03.029Z,1.83
2022-08-10T19:20:39.399Z,2.00
2022-08-10T19:23:35.057Z,2.22
2022-08-10T19:26:42.218Z,2.03
2022-08-10T19:29:09.135Z,1.73
2022-08-10T19:31:50.940Z,1.77
2022-08-10T19:34:39.286Z,1.63
2022-08-10T19:37:15.410Z,1.77
2022-08-10T19:40:04.020Z,1.95
2022-08-10T19:42:45.089Z,1.90
2022-08-10T19:46:01.952Z,1.70
2022-08-10T19:48:19.878Z,1.88
2022-08-10T19:50:56.955Z,2.17
2022-08-10T19:53:32.619Z,1.65
2022-08-10T19:56:32.661Z,1.63
2022-08-10T19:59:04.047Z,2.05
2022-08-10T20:01:52.684Z,1.85
2022-08-10T20:04:29.576Z,2.45
2022-08-10T20:07:14.597Z,2.95
2022-08-10T20:09:47.489Z,1.90
2022-08-10T20:12:26.608Z,1.70
2022-08-10T20:15:02.709Z,1.70
2022-08-10T20:17:51.396Z,1.90
2022-08-10T20:20:30.998Z,1.75
2022-08-10T20:23:09.417Z,1.85
2022-08-10T20:25:37.726Z,1.83
2022-08-10T20:28:19.345Z,1.35
2022-08-10T20:30:52.388Z,1.35
2022-08-10T20:33:28.306Z,1.60
2022-08-10T20:36:03.066Z,1.50
2022-08-10T20:38:38.995Z,1.38
2022-08-10T20:41:17.417Z,3.35
2022-08-10T20:43:57.483Z,1.85
2022-08-10T20:46:31.808Z,1.35
2022-08-10T20:49:05.431Z,1.85
2022-08-10T20:51:58.938Z,1.70
2022-08-10T20:54:33.934Z,1.40
2022-08-10T20:57:54.684Z,1.67
2022-08-10T21:00:13.851Z,1.40
2022-08-10T21:03:06.613Z,1.55
2022-08-10T21:05:53.670Z,1.75
2022-08-10T21:08:31.948Z,1.20
2022-08-10T21:11:07.339Z,1.40
2022-08-10T21:13:54.346Z,1.40
2022-08-10T21:16:38.058Z,1.40
2022-08-10T21:19:36.995Z,1.08
2022-08-10T21:22:15.677Z,1.50
2022-08-10T21:24:52.242Z,1.55
2022-08-10T21:28:10.339Z,1.23
2022-08-10T21:30:51.123Z,1.23
2022-08-10T21:33:34.549Z,1.10
2022-08-10T21:36:10.966Z,1.40
2022-08-10T21:38:51.987Z,1.20
2022-08-10T21:41:57.385Z,1.50
2022-08-10T21:44:59.000Z,1.50
2022-08-10T21:48:16.528Z,1.38
2022-08-10T21:51:16.279Z,1.10
2022-08-10T21:54:18.235Z,1.20
2022-08-10T21:57:12.113Z,1.20
2022-08-10T22:00:04.377Z,1.13
2022-08-10T22:02:54.200Z,1.25
2022-08-10T22:05:45.510Z,1.00
2022-08-10T22:08:37.020Z,1.40
2022-08-10T22:11:26.619Z,1.67
2022-08-10T22:14:14.014Z,1.60
2022-08-10T22:17:59.999Z,1.27
2022-08-10T22:20:24.924Z,1.20
2022-08-10T22:23:29.063Z,1.10
2022-08-10T22:26:28.748Z,1.15
2022-08-10T22:29:18.553Z,1.50
2022-08-10T22:32:15.229Z,0.93
2022-08-10T22:35:12.963Z,1.10
2022-08-10T22:38:11.264Z,1.27
2022-08-10T22:41:03.814Z,1.10
2022-08-10T22:43:52.984Z,1.30
2022-08-10T22:46:42.279Z,1.20
2022-08-10T22:49:09.892Z,1.33
2022-08-10T22:51:47.440Z,1.38
2022-08-10T22:54:38.903Z,1.10
2022-08-10T22:57:24.616Z,1.20
2022-08-10T22:59:53.927Z,1.25
2022-08-10T23:02:30.352Z,1.10
2022-08-10T23:05:06.583Z,1.27
2022-08-10T23:07:38.127Z,1.13
2022-08-10T23:10:09.247Z,1.20
2022-08-10T23:12:42.439Z,1.20
2022-08-10T23:15:38.367Z,0.90
2022-08-10T23:18:28.578Z,0.95
2022-08-10T23:20:59.501Z,1.02
2022-08-10T23:23:30.109Z,1.50
2022-08-10T23:26:00.992Z,1.10
2022-08-10T23:28:39.034Z,1.13
2022-08-10T23:32:00.585Z,1.40
2022-08-10T23:34:20.669Z,1.30
2022-08-10T23:36:50.837Z,1.05
2022-08-10T23:39:26.467Z,1.40
2022-08-10T23:42:06.963Z,1.42
2022-08-10T23:44:39.183Z,1.10
2022-08-10T23:47:09.469Z,1.00
2022-08-10T23:49:39.550Z,1.08
2022-08-10T23:52:12.975Z,1.35
2022-08-10T23:54:51.105Z,1.38
2022-08-10T23:57:21.186Z,1.02
2022-08-10T23:59:56.382Z,1.08
